world map with KMG marked

KMG - Airport

This information may not be accurate or current and is not valid for navigation or flight planning. No warranty of fitness for any purpose is made or implied.

flag of China

Donate via PayPal

Additional information is available on the NEW Great Circle Mapper

Location
City:  Kunming, Yunnan, China
Name:Kunming Changshui International Airport
ICAO / IATA:ZPPP / KMG

Details
Type:Airport (Aerodrome, Airfield)
Use:Public/Civil
Latitude:25°06'N (25.105)
Longitude:102°57'E (102.942)
Elevation:6903 ft (2104 m)
Runways:2
Longest:14764 × 197 ft (4500 × 60 m)

Time
Timezone:UTC+8 (DST+10)
Local Time:

Weather
METAR:ZPPP  041400Z 22007MPS CAVOK 11/M01 Q1021 NOSIG
TAF:ZPPP  (expired)

Related Locations
Nearby:
Farthest:SCFX: 12237 mi / 19694 km
Isla San Félix, Desventuradas Islands, VS, CL

Find:

   beyond  
but within

Other Information
Maps:
Links:
Sources:

  


 


Great Circle Mapper   Great Circle Mapper
Great Circle Mapper FAQ   Great Circle Mapper FAQ
  Karl's Home Page
KLS²   KLS² Home
   GC on Facebook
Airlines of the World   Airlines of the World
Donate via PayPal


Copyright © 2004-2020, Karl L. Swartz. All rights reserved.
All trademarks mentioned herein belong to their respective owners.

Please see credits for attribution and copyright information.

Karl Swartz <karl@kls2.com>
  Powered by FreeBSD
Valid HTML 4.01!
Labeled with ICRA
hCard Microformat
Geo Microformat